createdAt,value
2023-07-25T00:01:59.086Z,19.13
2023-07-25T00:04:25.685Z,13.00
2023-07-25T00:06:52.102Z,15.00
2023-07-25T00:09:18.551Z,14.35
2023-07-25T00:11:47.082Z,12.80
2023-07-25T00:14:13.510Z,13.80
2023-07-25T00:16:39.975Z,17.58
2023-07-25T00:19:06.414Z,10.90
2023-07-25T00:21:33.134Z,14.80
2023-07-25T00:23:59.895Z,15.77
2023-07-25T00:26:26.314Z,17.98
2023-07-25T00:28:52.805Z,14.02
2023-07-25T00:31:19.403Z,12.95
2023-07-25T00:33:45.991Z,11.73
2023-07-25T00:36:12.429Z,16.88
2023-07-25T00:38:38.895Z,13.32
2023-07-25T00:41:05.377Z,16.83
2023-07-25T00:43:31.849Z,16.65
2023-07-25T00:45:58.404Z,12.27
2023-07-25T00:48:24.916Z,17.00
2023-07-25T00:50:51.964Z,19.42
2023-07-25T00:53:18.526Z,17.52
2023-07-25T00:55:45.771Z,17.45
2023-07-25T00:58:12.249Z,17.88
2023-07-25T01:00:39.565Z,18.63
2023-07-25T01:03:06.839Z,15.05
2023-07-25T01:05:39.694Z,19.70
2023-07-25T01:08:06.403Z,18.42
2023-07-25T01:10:33.568Z,16.45
2023-07-25T01:13:00.006Z,17.70
2023-07-25T01:15:27.930Z,16.90
2023-07-25T01:17:54.775Z,15.00
2023-07-25T01:20:22.199Z,21.15
2023-07-25T01:22:50.672Z,12.82
2023-07-25T01:25:17.348Z,17.50
2023-07-25T01:27:43.821Z,15.80
2023-07-25T01:30:10.527Z,18.98
2023-07-25T01:32:36.979Z,17.40
2023-07-25T01:35:04.102Z,15.98
2023-07-25T01:37:30.536Z,19.58
2023-07-25T01:39:56.984Z,18.50
2023-07-25T01:42:23.415Z,20.55
2023-07-25T01:44:49.858Z,27.83
2023-07-25T01:47:16.283Z,17.27
2023-07-25T01:49:42.708Z,17.08
2023-07-25T01:52:09.142Z,15.80
2023-07-25T01:54:35.566Z,19.38
2023-07-25T01:57:02.017Z,15.85
2023-07-25T01:59:29.247Z,16.65
2023-07-25T02:01:55.670Z,22.88
2023-07-25T02:04:22.164Z,15.88
2023-07-25T02:06:48.609Z,19.35
2023-07-25T02:09:15.037Z,20.50
2023-07-25T02:11:41.539Z,14.95
2023-07-25T02:14:07.970Z,18.08
2023-07-25T02:16:37.992Z,18.83
2023-07-25T02:19:05.027Z,13.38
2023-07-25T02:21:31.756Z,19.05
2023-07-25T02:23:58.520Z,11.98
2023-07-25T02:26:25.226Z,15.43
2023-07-25T02:28:51.695Z,13.77
2023-07-25T02:31:19.292Z,6.70
2023-07-25T03:34:06.008Z,3.60
2023-07-25T03:36:33.920Z,4.45
2023-07-25T03:39:00.489Z,5.88
2023-07-25T03:41:29.719Z,5.55
2023-07-25T03:43:56.632Z,5.88
2023-07-25T03:46:23.173Z,3.10
2023-07-25T03:48:50.250Z,3.42
2023-07-25T03:51:16.763Z,4.00
2023-07-25T03:53:43.303Z,4.55
2023-07-25T03:56:09.746Z,5.03
2023-07-25T03:58:36.224Z,4.88
2023-07-25T04:01:02.660Z,3.90
2023-07-25T04:03:32.141Z,2.75
2023-07-25T04:05:58.806Z,5.80
2023-07-25T04:08:25.404Z,4.13
2023-07-25T04:10:52.014Z,3.60
2023-07-25T04:13:18.921Z,2.60
2023-07-25T04:15:45.392Z,3.40
2023-07-25T04:18:12.005Z,12.48
2023-07-25T04:20:38.677Z,4.63
2023-07-25T04:23:05.372Z,3.13
2023-07-25T04:25:32.047Z,2.88
2023-07-25T04:27:58.675Z,2.40
2023-07-25T04:30:25.380Z,3.53
2023-07-25T04:32:52.341Z,4.13
2023-07-25T04:35:19.142Z,4.35
2023-07-25T04:37:45.612Z,6.10
2023-07-25T04:40:13.077Z,3.47
2023-07-25T04:42:39.769Z,2.90
2023-07-25T04:45:06.822Z,4.78
2023-07-25T04:47:33.331Z,3.58
2023-07-25T04:50:00.763Z,6.13
2023-07-25T04:52:27.404Z,3.45
2023-07-25T04:54:58.406Z,3.65
2023-07-25T04:57:28.459Z,3.78
2023-07-25T04:59:54.938Z,2.50
2023-07-25T05:02:22.316Z,2.97
2023-07-25T05:04:48.850Z,4.30
2023-07-25T05:07:16.525Z,3.50
2023-07-25T05:09:43.064Z,3.72
2023-07-25T05:12:15.462Z,18.13
2023-07-25T05:14:42.295Z,3.72
2023-07-25T05:17:08.982Z,2.35
2023-07-25T05:19:35.694Z,2.92
2023-07-25T05:22:02.581Z,4.32
2023-07-25T05:24:29.601Z,4.47
2023-07-25T05:26:58.459Z,3.03
2023-07-25T05:29:26.972Z,3.20
2023-07-25T05:31:53.676Z,4.22
2023-07-25T05:34:20.202Z,4.50
2023-07-25T05:36:46.853Z,2.83
2023-07-25T05:39:13.645Z,3.50
2023-07-25T05:41:41.060Z,5.28
2023-07-25T05:44:10.433Z,3.67
2023-07-25T05:46:37.287Z,3.88
2023-07-25T05:49:06.926Z,4.65
2023-07-25T05:54:01.276Z,4.75
2023-07-25T05:56:27.832Z,5.25
2023-07-25T05:58:54.978Z,5.28
2023-07-25T06:01:21.648Z,2.75
2023-07-25T06:03:48.126Z,3.33
2023-07-25T06:06:14.564Z,3.50
2023-07-25T06:08:40.985Z,4.35
2023-07-25T06:11:07.628Z,5.35
2023-07-25T06:13:34.978Z,3.20
2023-07-25T06:16:01.554Z,3.58
2023-07-25T06:18:28.114Z,4.32
2023-07-25T06:20:54.608Z,3.70
2023-07-25T06:23:21.852Z,4.68
2023-07-25T06:25:48.455Z,5.30
2023-07-25T06:28:18.841Z,5.80
2023-07-25T06:30:45.490Z,5.50
2023-07-25T06:33:15.648Z,5.45
2023-07-25T06:35:42.343Z,4.20
2023-07-25T06:38:08.788Z,5.57
2023-07-25T06:40:35.259Z,3.95
2023-07-25T06:43:01.694Z,6.65
2023-07-25T06:45:28.143Z,6.20
2023-07-25T06:47:54.669Z,5.20
2023-07-25T06:50:21.737Z,4.95
2023-07-25T06:52:48.210Z,5.65
2023-07-25T06:55:15.001Z,8.20
2023-07-25T06:57:41.417Z,6.38
2023-07-25T07:00:09.075Z,4.10
2023-07-25T07:02:35.634Z,6.15
2023-07-25T07:05:08.707Z,5.60
2023-07-25T07:07:42.336Z,4.95
2023-07-25T07:10:09.246Z,7.32
2023-07-25T07:12:35.751Z,7.55
2023-07-25T07:15:02.419Z,4.90
2023-07-25T07:17:28.895Z,5.53
2023-07-25T07:19:55.998Z,24.42
2023-07-25T07:22:22.551Z,5.65
2023-07-25T07:24:49.053Z,4.43
2023-07-25T07:27:15.587Z,4.72
2023-07-25T07:29:42.058Z,5.45
2023-07-25T07:32:08.971Z,5.13
2023-07-25T07:34:35.486Z,6.13
2023-07-25T07:37:01.932Z,7.38
2023-07-25T07:39:28.515Z,3.60
2023-07-25T07:41:55.308Z,6.32
2023-07-25T07:44:23.730Z,3.88
2023-07-25T07:46:51.888Z,4.10
2023-07-25T07:49:18.359Z,3.50
2023-07-25T07:51:51.638Z,5.72
2023-07-25T07:54:24.153Z,11.05
2023-07-25T07:56:50.660Z,3.58
2023-07-25T07:59:17.096Z,5.75
2023-07-25T08:01:44.031Z,4.55
2023-07-25T08:04:10.664Z,6.60
2023-07-25T08:06:37.132Z,6.30
2023-07-25T08:09:03.833Z,5.80
2023-07-25T08:11:30.518Z,3.92
2023-07-25T08:13:57.299Z,3.30
2023-07-25T08:16:25.909Z,1.77
2023-07-25T08:18:52.588Z,3.42
2023-07-25T08:21:19.089Z,3.55
2023-07-25T08:23:45.626Z,3.08
2023-07-25T08:26:12.134Z,3.30
2023-07-25T08:28:41.717Z,4.65
2023-07-25T08:31:08.439Z,4.38
2023-07-25T08:33:37.915Z,5.35
2023-07-25T08:36:05.258Z,4.60
2023-07-25T08:38:32.305Z,3.70
2023-07-25T08:41:25.166Z,3.45
2023-07-25T08:43:54.109Z,4.60
2023-07-25T08:46:21.578Z,4.15
2023-07-25T08:48:48.915Z,3.17
2023-07-25T08:51:22.639Z,2.15
2023-07-25T08:54:15.172Z,3.42
2023-07-25T08:56:42.829Z,2.40
2023-07-25T08:59:13.069Z,2.45
2023-07-25T09:01:39.829Z,1.65
2023-07-25T09:04:09.249Z,3.42
2023-07-25T09:06:36.351Z,4.25
2023-07-25T09:09:03.580Z,3.08
2023-07-25T09:11:30.525Z,3.90
2023-07-25T09:13:57.188Z,2.58
2023-07-25T09:16:23.803Z,2.72
2023-07-25T09:18:50.435Z,3.05
2023-07-25T09:21:17.117Z,3.65
2023-07-25T09:23:58.815Z,2.25
2023-07-25T09:26:27.830Z,2.33
2023-07-25T09:29:00.917Z,2.85
2023-07-25T09:31:29.305Z,3.72
2023-07-25T09:33:57.518Z,4.65
2023-07-25T09:36:24.540Z,6.22
2023-07-25T09:38:53.489Z,4.82
2023-07-25T09:41:22.294Z,3.15
2023-07-25T09:43:49.338Z,4.28
2023-07-25T09:46:15.975Z,7.63
2023-07-25T09:48:47.784Z,3.47
2023-07-25T09:51:14.927Z,2.38
2023-07-25T09:53:45.810Z,2.70
2023-07-25T09:56:12.509Z,2.38
2023-07-25T09:58:50.862Z,4.72
2023-07-25T10:01:26.788Z,2.97
2023-07-25T10:03:53.609Z,6.38
2023-07-25T10:06:20.875Z,5.88
2023-07-25T10:08:48.676Z,2.72
2023-07-25T10:11:15.480Z,3.13
2023-07-25T10:13:42.610Z,4.70
2023-07-25T10:16:11.661Z,4.45
2023-07-25T10:18:38.386Z,3.08
2023-07-25T10:21:04.908Z,9.98
2023-07-25T10:23:38.210Z,3.13
2023-07-25T10:26:12.254Z,4.85
2023-07-25T10:28:39.955Z,6.40
2023-07-25T10:31:08.857Z,3.47
2023-07-25T10:33:43.755Z,3.03
2023-07-25T10:36:24.294Z,2.63
2023-07-25T10:38:51.315Z,3.65
2023-07-25T10:41:17.870Z,2.72
2023-07-25T10:43:50.618Z,3.15
2023-07-25T10:46:19.673Z,3.85
2023-07-25T10:48:47.969Z,4.15
2023-07-25T10:51:16.551Z,4.75
2023-07-25T10:54:13.666Z,2.00
2023-07-25T10:56:41.204Z,3.72
2023-07-25T10:59:12.395Z,3.35
2023-07-25T11:01:48.936Z,4.22
2023-07-25T11:04:28.555Z,3.72
2023-07-25T11:07:14.503Z,3.73
2023-07-25T11:09:43.118Z,3.95
2023-07-25T11:12:11.374Z,5.80
2023-07-25T11:14:45.390Z,4.00
2023-07-25T11:17:13.065Z,6.80
2023-07-25T11:19:39.943Z,4.45
2023-07-25T11:22:13.316Z,7.63
2023-07-25T11:24:44.753Z,7.57
2023-07-25T11:27:12.203Z,5.07
2023-07-25T11:29:38.740Z,3.10
2023-07-25T11:32:05.594Z,3.40
2023-07-25T11:34:32.062Z,4.22
2023-07-25T11:36:58.590Z,2.78
2023-07-25T11:39:25.198Z,2.83
2023-07-25T11:41:51.786Z,5.47
2023-07-25T11:44:20.241Z,4.03
2023-07-25T11:46:55.790Z,2.88
2023-07-25T11:49:40.077Z,5.32
2023-07-25T11:52:09.248Z,5.00
2023-07-25T11:54:36.455Z,3.55
2023-07-25T11:57:03.246Z,2.55
2023-07-25T11:59:29.758Z,5.68
2023-07-25T12:02:05.933Z,6.70
2023-07-25T12:04:32.501Z,3.85
2023-07-25T12:07:00.138Z,2.72
2023-07-25T12:09:29.734Z,3.47
2023-07-25T12:11:56.273Z,2.50
2023-07-25T12:14:23.335Z,3.35
2023-07-25T12:16:49.836Z,6.15
2023-07-25T12:19:16.383Z,3.40
2023-07-25T12:21:44.934Z,3.72
2023-07-25T12:24:13.481Z,4.57
2023-07-25T12:26:52.951Z,3.60
2023-07-25T12:29:25.483Z,4.32
2023-07-25T12:31:53.040Z,3.17
2023-07-25T12:34:20.024Z,3.22
2023-07-25T12:36:47.780Z,4.97
2023-07-25T12:39:14.796Z,4.65
2023-07-25T12:41:43.615Z,4.15
2023-07-25T12:44:11.033Z,7.13
2023-07-25T12:46:41.304Z,6.28
2023-07-25T12:51:34.688Z,7.15
2023-07-25T12:54:01.583Z,5.40
2023-07-25T12:56:28.135Z,5.38
2023-07-25T12:58:55.870Z,3.65
2023-07-25T13:01:23.195Z,2.95
2023-07-25T13:03:49.962Z,4.97
2023-07-25T13:06:16.521Z,4.38
2023-07-25T13:08:43.014Z,4.70
2023-07-25T13:11:09.726Z,3.45
2023-07-25T13:13:36.201Z,3.72
2023-07-25T13:16:04.799Z,4.10
2023-07-25T13:18:31.415Z,5.43
2023-07-25T13:20:57.998Z,4.57
2023-07-25T13:23:24.464Z,5.70
2023-07-25T13:25:51.069Z,6.07
2023-07-25T13:28:17.794Z,5.72
2023-07-25T13:30:44.510Z,6.63
2023-07-25T13:33:11.331Z,5.10
2023-07-25T13:35:38.038Z,4.68
2023-07-25T13:38:04.707Z,6.57
2023-07-25T13:40:31.319Z,7.80
2023-07-25T13:42:57.748Z,4.93
2023-07-25T13:45:34.354Z,4.85
2023-07-25T13:48:04.729Z,7.13
2023-07-25T13:50:38.722Z,8.55
2023-07-25T13:53:17.511Z,5.28
2023-07-25T13:55:43.954Z,5.95
2023-07-25T13:58:22.950Z,6.10
2023-07-25T14:00:49.950Z,10.55
2023-07-25T14:03:16.367Z,5.18
2023-07-25T14:05:42.915Z,5.35
2023-07-25T14:08:09.512Z,4.32
2023-07-25T14:10:37.177Z,3.50
2023-07-25T14:13:03.863Z,4.70
2023-07-25T14:15:31.766Z,5.22
2023-07-25T14:17:58.607Z,4.38
2023-07-25T14:20:25.788Z,9.68
2023-07-25T14:22:52.247Z,5.10
2023-07-25T14:25:18.747Z,6.50
2023-07-25T14:27:45.285Z,5.35
2023-07-25T14:30:12.590Z,4.05
2023-07-25T14:32:39.110Z,4.80
2023-07-25T14:35:06.005Z,8.32
2023-07-25T14:37:44.144Z,4.68
2023-07-25T14:40:18.975Z,5.95
2023-07-25T14:42:45.552Z,5.25
2023-07-25T14:45:12.091Z,6.95
2023-07-25T14:47:38.819Z,6.10
2023-07-25T14:50:06.005Z,6.80
2023-07-25T14:52:32.752Z,4.97
2023-07-25T14:54:59.273Z,8.10
2023-07-25T14:57:25.777Z,5.43
2023-07-25T14:59:52.372Z,5.93
2023-07-25T15:02:19.052Z,7.35
2023-07-25T15:04:45.692Z,6.40
2023-07-25T15:07:12.221Z,6.15
2023-07-25T15:09:38.753Z,8.85
2023-07-25T15:12:05.782Z,5.45
2023-07-25T15:14:32.273Z,6.70
2023-07-25T15:16:58.815Z,7.85
2023-07-25T15:19:28.347Z,6.10
2023-07-25T15:21:55.334Z,10.45
2023-07-25T15:24:21.896Z,6.93
2023-07-25T15:26:50.371Z,6.35
2023-07-25T15:29:16.863Z,9.52
2023-07-25T15:31:43.748Z,7.05
2023-07-25T15:34:10.358Z,8.27
2023-07-25T15:36:36.990Z,7.70
2023-07-25T15:39:03.895Z,8.82
2023-07-25T15:41:31.144Z,7.57
2023-07-25T15:43:57.913Z,9.20
2023-07-25T15:46:24.375Z,8.02
2023-07-25T15:48:50.993Z,9.65
2023-07-25T15:51:18.163Z,7.82
2023-07-25T15:53:44.807Z,8.20
2023-07-25T15:56:11.953Z,7.35
2023-07-25T15:58:38.413Z,6.85
2023-07-25T16:01:05.107Z,8.48
2023-07-25T16:03:31.733Z,9.13
2023-07-25T16:05:58.283Z,9.50
2023-07-25T16:08:25.730Z,10.95
2023-07-25T16:10:52.254Z,8.10
2023-07-25T16:13:18.888Z,10.20
2023-07-25T16:15:47.429Z,7.82
2023-07-25T16:18:14.653Z,9.77
2023-07-25T16:20:41.255Z,5.72
2023-07-25T16:23:07.872Z,6.75
2023-07-25T16:25:34.324Z,8.60
2023-07-25T16:28:01.033Z,9.63
2023-07-25T16:30:27.823Z,8.38
2023-07-25T16:32:54.797Z,8.52
2023-07-25T16:35:21.299Z,6.80
2023-07-25T16:37:49.015Z,6.50
2023-07-25T16:40:15.612Z,13.73
2023-07-25T16:42:42.271Z,8.65
2023-07-25T16:45:09.320Z,8.52
2023-07-25T16:47:35.933Z,8.82
2023-07-25T16:50:02.639Z,7.35
2023-07-25T16:52:29.448Z,7.90
2023-07-25T16:54:55.897Z,13.15
2023-07-25T16:57:22.491Z,9.27
2023-07-25T16:59:49.158Z,11.65
2023-07-25T17:02:15.732Z,7.93
2023-07-25T17:04:43.907Z,12.50
2023-07-25T17:07:10.437Z,10.13
2023-07-25T17:09:36.938Z,8.82
2023-07-25T17:12:04.565Z,11.30
2023-07-25T17:14:31.379Z,7.45
2023-07-25T17:16:57.859Z,7.47
2023-07-25T17:19:24.277Z,8.60
2023-07-25T17:21:50.804Z,12.48
2023-07-25T17:24:17.393Z,7.90
2023-07-25T17:26:43.971Z,10.50
2023-07-25T17:29:10.501Z,7.20
2023-07-25T17:31:37.672Z,9.35
2023-07-25T17:34:04.822Z,7.85
2023-07-25T17:36:31.472Z,10.13
2023-07-25T17:38:58.083Z,6.88
2023-07-25T17:41:24.910Z,10.23
2023-07-25T17:43:51.421Z,9.38
2023-07-25T17:46:17.917Z,9.38
2023-07-25T17:48:44.361Z,9.55
2023-07-25T17:51:11.106Z,6.03
2023-07-25T17:53:38.059Z,6.57
2023-07-25T17:56:07.516Z,8.02
2023-07-25T17:58:34.230Z,12.50
2023-07-25T18:01:01.176Z,5.72
2023-07-25T18:03:27.969Z,7.32
2023-07-25T18:05:54.535Z,7.53
2023-07-25T18:08:21.198Z,6.97
2023-07-25T18:10:48.111Z,8.95
2023-07-25T18:13:14.743Z,7.45
2023-07-25T18:15:41.290Z,9.50
2023-07-25T18:18:08.037Z,6.82
2023-07-25T18:20:34.478Z,7.75
2023-07-25T18:23:00.945Z,6.30
2023-07-25T18:25:27.412Z,7.00
2023-07-25T18:27:53.981Z,9.60
2023-07-25T18:30:20.534Z,5.05
2023-07-25T18:32:47.160Z,6.35
2023-07-25T18:35:16.692Z,5.97
2023-07-25T18:37:45.747Z,7.90
2023-07-25T18:40:12.498Z,9.02
2023-07-25T18:42:39.160Z,6.50
2023-07-25T18:45:06.461Z,7.28
2023-07-25T18:47:35.484Z,5.38
2023-07-25T18:50:02.597Z,9.02
2023-07-25T18:52:29.584Z,7.88
2023-07-25T18:54:56.069Z,6.28
2023-07-25T18:57:22.716Z,8.30
2023-07-25T18:59:49.689Z,8.07
2023-07-25T19:02:16.735Z,8.00
2023-07-25T19:04:44.573Z,8.88
2023-07-25T19:07:15.769Z,8.82
2023-07-25T19:09:43.391Z,8.20
2023-07-25T19:12:10.217Z,8.55
2023-07-25T19:14:36.853Z,6.82
2023-07-25T19:17:03.497Z,8.30
2023-07-25T19:19:30.051Z,12.80
2023-07-25T19:21:56.480Z,11.88
2023-07-25T19:24:25.890Z,6.18
2023-07-25T19:26:53.292Z,9.70
2023-07-25T19:29:20.249Z,8.55
2023-07-25T19:31:46.709Z,12.38
2023-07-25T19:34:14.148Z,10.10
2023-07-25T19:36:40.738Z,10.20
2023-07-25T19:39:07.356Z,12.48
2023-07-25T19:41:36.404Z,10.90
2023-07-25T19:44:07.375Z,9.65
2023-07-25T19:46:34.356Z,10.77
2023-07-25T19:49:01.308Z,8.45
2023-07-25T19:51:27.822Z,10.57
2023-07-25T19:53:54.335Z,11.15
2023-07-25T19:56:20.780Z,11.90
2023-07-25T19:58:47.262Z,9.63
2023-07-25T20:01:14.389Z,9.68
2023-07-25T20:03:41.421Z,14.98
2023-07-25T20:06:12.549Z,13.32
2023-07-25T20:08:39.124Z,13.30
2023-07-25T20:11:05.671Z,8.80
2023-07-25T20:13:33.198Z,17.00
2023-07-25T20:16:00.051Z,12.68
2023-07-25T20:18:27.776Z,14.20
2023-07-25T20:21:09.867Z,11.50
2023-07-25T20:23:37.846Z,10.85
2023-07-25T20:26:04.859Z,14.57
2023-07-25T20:28:31.380Z,11.98
2023-07-25T20:30:57.892Z,12.55
2023-07-25T20:33:24.492Z,10.70
2023-07-25T20:35:51.962Z,12.77
2023-07-25T20:38:18.731Z,10.77
2023-07-25T20:40:45.225Z,11.68
2023-07-25T20:43:11.708Z,10.98
2023-07-25T20:45:38.197Z,13.15
2023-07-25T20:48:05.150Z,12.55
2023-07-25T20:50:33.531Z,11.50
2023-07-25T20:53:00.366Z,11.57
2023-07-25T20:55:26.776Z,14.68
2023-07-25T20:57:53.215Z,13.90
2023-07-25T21:00:19.854Z,12.43
2023-07-25T21:02:49.917Z,14.73
2023-07-25T21:05:16.761Z,15.55
2023-07-25T21:07:43.399Z,14.25
2023-07-25T21:10:10.326Z,15.98
2023-07-25T21:12:38.291Z,15.45
2023-07-25T21:15:06.978Z,11.80
2023-07-25T21:17:33.475Z,12.05
2023-07-25T21:19:59.942Z,13.15
2023-07-25T21:22:26.399Z,16.75
2023-07-25T21:24:52.925Z,19.48
2023-07-25T21:27:20.996Z,14.23
2023-07-25T21:29:47.807Z,18.77
2023-07-25T21:32:14.324Z,13.93
2023-07-25T21:34:40.811Z,18.45
2023-07-25T21:37:07.297Z,19.88
2023-07-25T21:39:35.392Z,18.90
2023-07-25T21:42:01.999Z,20.05
2023-07-25T21:44:28.601Z,18.27
2023-07-25T21:46:55.142Z,14.95
2023-07-25T21:49:22.677Z,16.05
2023-07-25T21:51:49.340Z,17.05
2023-07-25T21:54:15.911Z,17.40
2023-07-25T21:56:42.392Z,16.30
2023-07-25T21:59:08.957Z,17.27
2023-07-25T22:01:35.491Z,13.80
2023-07-25T22:04:02.338Z,17.52
2023-07-25T22:06:30.002Z,20.30
2023-07-25T22:08:56.724Z,18.80
2023-07-25T22:11:23.246Z,14.88
2023-07-25T22:13:49.832Z,17.63
2023-07-25T22:16:17.594Z,21.75
2023-07-25T22:18:44.847Z,16.88
2023-07-25T22:21:11.528Z,17.52
2023-07-25T22:23:38.445Z,17.40
2023-07-25T22:26:05.309Z,16.98
2023-07-25T22:28:32.165Z,17.48
2023-07-25T22:31:02.146Z,21.08
2023-07-25T22:33:28.856Z,17.52
2023-07-25T22:35:55.402Z,19.30
2023-07-25T22:38:21.856Z,18.33
2023-07-25T22:40:48.360Z,16.80
2023-07-25T22:43:14.854Z,19.15
2023-07-25T22:45:41.395Z,20.05
2023-07-25T22:48:08.177Z,21.70
2023-07-25T22:50:34.672Z,16.83
2023-07-25T22:53:01.326Z,16.70
2023-07-25T22:55:28.724Z,17.52
2023-07-25T22:57:55.506Z,17.92
2023-07-25T23:00:22.089Z,18.20
2023-07-25T23:02:49.860Z,17.52
2023-07-25T23:05:16.472Z,14.70
2023-07-25T23:07:42.905Z,11.73
2023-07-25T23:10:09.713Z,15.60
2023-07-25T23:12:36.231Z,9.63
2023-07-25T23:15:03.011Z,13.00
2023-07-25T23:17:30.758Z,9.00
2023-07-25T23:19:57.278Z,8.05
2023-07-25T23:22:23.774Z,8.18
2023-07-25T23:24:50.275Z,9.40
2023-07-25T23:27:16.854Z,8.32
2023-07-25T23:29:43.494Z,5.38
2023-07-25T23:32:10.027Z,5.22
2023-07-25T23:34:48.685Z,4.72
2023-07-25T23:37:16.090Z,5.63
2023-07-25T23:39:42.995Z,6.00
2023-07-25T23:42:10.052Z,5.15
2023-07-25T23:44:36.730Z,4.82
2023-07-25T23:47:05.333Z,12.00
2023-07-25T23:49:33.944Z,6.82
2023-07-25T23:52:00.376Z,6.35
2023-07-25T23:54:27.309Z,8.35
2023-07-25T23:56:53.872Z,7.45
2023-07-25T23:59:20.690Z,8.98
